Coatsburg, Illinois
Current Conditions -  °F | °C
As of 5:54 PM on Monday 22 Dec 2014 (Local Time) from KUIN Reporting Station
Light Rain Light Rain  
Wind Chill: 39°   Ceiling: 500
Heat Index: 44°   Visibility: 3mi
Dew Point: 43°   Wind: 9mph
Humidity: 96%   Direction: 130°SE
Pressure: 29.5"   Gusts: NA
Location:  40.03°N, 91.16°W
Report Text: KUIN 222354Z AUTO 13008KT 3SM -RA BR OVC005 07/06 A2950 RMK AO2 SLP991 P0003 60005 T00670061 10067 20044 58006
Loading
Personal Weather Stations






























Interactive Weather Map New forecast layout! Learn more

10-Day Weather Forecast

Advertisements
Track Severe Weather on mobile